createdAt,value
2022-09-10T00:00:07.692Z,0.00
2022-09-10T00:01:07.681Z,0.00
2022-09-10T00:02:07.762Z,0.00
2022-09-10T00:03:07.712Z,0.00
2022-09-10T00:04:07.648Z,0.00
2022-09-10T00:05:07.656Z,0.00
2022-09-10T00:06:07.628Z,0.00
2022-09-10T00:07:07.616Z,0.00
2022-09-10T00:08:07.604Z,0.00
2022-09-10T00:09:07.598Z,0.00
2022-09-10T00:10:07.581Z,0.00
2022-09-10T00:11:07.571Z,0.00
2022-09-10T00:12:07.558Z,0.00
2022-09-10T00:13:07.550Z,0.00
2022-09-10T00:14:07.536Z,0.00
2022-09-10T00:15:07.562Z,0.00
2022-09-10T00:16:07.556Z,0.00
2022-09-10T00:17:07.503Z,0.00
2022-09-10T00:18:07.494Z,0.00
2022-09-10T00:19:07.482Z,0.00
2022-09-10T00:20:07.471Z,0.00
2022-09-10T00:21:07.486Z,0.00
2022-09-10T00:22:07.449Z,0.00
2022-09-10T00:23:07.441Z,0.00
2022-09-10T00:24:07.427Z,0.00
2022-09-10T00:25:08.498Z,0.00
2022-09-10T00:26:07.406Z,0.00
2022-09-10T00:27:07.399Z,0.00
2022-09-10T00:28:07.383Z,0.00
2022-09-10T00:29:07.374Z,0.00
2022-09-10T00:30:07.362Z,0.00
2022-09-10T00:31:07.378Z,0.00
2022-09-10T00:32:07.339Z,0.00
2022-09-10T00:33:07.348Z,0.00
2022-09-10T00:34:07.319Z,0.00
2022-09-10T00:35:07.312Z,0.00
2022-09-10T00:36:07.299Z,0.00
2022-09-10T00:37:07.303Z,0.00
2022-09-10T00:38:07.275Z,0.00
2022-09-10T00:39:07.278Z,0.00
2022-09-10T00:40:07.280Z,0.00
2022-09-10T00:41:07.242Z,0.00
2022-09-10T00:42:07.231Z,0.00
2022-09-10T00:43:07.219Z,0.00
2022-09-10T00:44:07.210Z,0.00
2022-09-10T00:45:07.204Z,0.00
2022-09-10T00:46:07.260Z,0.00
2022-09-10T00:47:07.174Z,0.00
2022-09-10T00:48:07.165Z,0.00
2022-09-10T00:49:07.155Z,0.00
2022-09-10T00:50:07.141Z,0.00
2022-09-10T00:51:07.174Z,0.00
2022-09-10T00:52:07.119Z,0.00
2022-09-10T00:53:07.132Z,0.00
2022-09-10T00:54:07.096Z,0.00
2022-09-10T00:55:07.086Z,0.00
2022-09-10T00:56:07.075Z,0.00
2022-09-10T00:57:07.069Z,0.00
2022-09-10T00:58:07.062Z,0.00
2022-09-10T00:59:07.041Z,0.00
2022-09-10T01:00:07.031Z,0.00
2022-09-10T01:01:07.104Z,0.00
2022-09-10T01:02:07.135Z,0.00
2022-09-10T01:03:07.003Z,0.00
2022-09-10T01:04:06.989Z,0.00
2022-09-10T01:05:06.975Z,0.00
2022-09-10T01:06:06.964Z,0.00
2022-09-10T01:07:06.953Z,0.00
2022-09-10T01:08:06.942Z,0.00
2022-09-10T01:09:06.957Z,0.00
2022-09-10T01:10:06.921Z,0.00
2022-09-10T01:11:06.908Z,0.00
2022-09-10T01:12:06.900Z,0.00
2022-09-10T01:13:06.888Z,0.00
2022-09-10T01:14:06.877Z,0.00
2022-09-10T01:15:06.881Z,0.00
2022-09-10T01:16:06.920Z,0.00
2022-09-10T01:17:06.842Z,0.00
2022-09-10T01:18:06.831Z,0.00
2022-09-10T01:19:06.824Z,0.00
2022-09-10T01:20:06.810Z,0.00
2022-09-10T01:21:06.807Z,0.00
2022-09-10T01:22:06.788Z,0.00
2022-09-10T01:23:06.776Z,0.00
2022-09-10T01:24:06.768Z,0.00
2022-09-10T01:25:06.777Z,0.00
2022-09-10T01:26:06.750Z,0.00
2022-09-10T01:27:06.763Z,0.00
2022-09-10T01:28:06.721Z,0.00
2022-09-10T01:29:06.710Z,0.00
2022-09-10T01:30:06.699Z,0.00
2022-09-10T01:31:06.796Z,0.00
2022-09-10T01:32:06.695Z,0.00
2022-09-10T01:33:06.673Z,0.00
2022-09-10T01:34:06.656Z,0.00
2022-09-10T01:35:06.645Z,0.00
2022-09-10T01:36:06.635Z,0.00
2022-09-10T01:37:06.624Z,0.00
2022-09-10T01:38:06.612Z,0.00
2022-09-10T01:39:06.621Z,0.00
2022-09-10T01:40:06.653Z,0.00
2022-09-10T01:41:06.599Z,0.00
2022-09-10T01:42:06.568Z,0.00
2022-09-10T01:43:06.561Z,0.00
2022-09-10T01:44:06.545Z,0.00
2022-09-10T01:45:06.541Z,0.00
2022-09-10T01:46:06.526Z,0.00
2022-09-10T01:47:06.511Z,0.00
2022-09-10T01:48:06.502Z,0.00
2022-09-10T01:49:06.490Z,0.00
2022-09-10T01:50:06.479Z,0.00
2022-09-10T01:51:06.485Z,0.00
2022-09-10T01:52:06.456Z,0.00
2022-09-10T01:53:06.445Z,0.00
2022-09-10T01:54:06.434Z,0.00
2022-09-10T01:55:06.423Z,0.00
2022-09-10T01:56:06.413Z,0.00
2022-09-10T01:57:06.448Z,0.00
2022-09-10T01:58:06.391Z,0.00
2022-09-10T01:59:06.379Z,0.00
2022-09-10T02:00:06.369Z,0.00
2022-09-10T02:01:06.435Z,0.00
2022-09-10T02:02:06.392Z,0.00
2022-09-10T02:03:06.370Z,0.00
2022-09-10T02:04:06.324Z,0.00
2022-09-10T02:05:06.318Z,0.00
2022-09-10T02:06:06.303Z,0.00
2022-09-10T02:07:06.296Z,0.00
2022-09-10T02:08:06.281Z,0.00
2022-09-10T02:09:06.275Z,0.00
2022-09-10T02:10:06.259Z,0.00
2022-09-10T02:11:06.255Z,0.00
2022-09-10T02:12:06.237Z,0.00
2022-09-10T02:13:06.246Z,0.00
2022-09-10T02:14:06.217Z,0.00
2022-09-10T02:15:06.225Z,0.00
2022-09-10T02:16:06.273Z,0.00
2022-09-10T02:17:06.182Z,0.00
2022-09-10T02:18:06.171Z,0.00
2022-09-10T02:19:06.159Z,0.00
2022-09-10T02:20:06.149Z,0.00
2022-09-10T02:21:06.148Z,0.00
2022-09-10T02:22:06.125Z,0.00
2022-09-10T02:23:06.114Z,0.00
2022-09-10T02:24:06.141Z,0.00
2022-09-10T02:25:06.093Z,0.00
2022-09-10T02:26:06.082Z,0.00
2022-09-10T02:27:06.077Z,0.00
2022-09-10T02:28:06.060Z,0.00
2022-09-10T02:29:06.072Z,0.00
2022-09-10T02:30:06.038Z,0.00
2022-09-10T02:31:06.028Z,0.00
2022-09-10T02:32:06.023Z,0.00
2022-09-10T02:33:06.010Z,0.00
2022-09-10T02:34:05.994Z,0.00
2022-09-10T02:35:05.986Z,0.00
2022-09-10T02:36:05.973Z,0.00
2022-09-10T02:37:05.961Z,0.00
2022-09-10T02:38:05.957Z,0.00
2022-09-10T02:39:05.970Z,0.00
2022-09-10T02:40:06.003Z,0.00
2022-09-10T02:41:05.917Z,0.00
2022-09-10T02:42:05.908Z,0.00
2022-09-10T02:43:05.897Z,0.00
2022-09-10T02:44:05.883Z,0.00
2022-09-10T02:45:05.901Z,0.00
2022-09-10T02:46:05.891Z,0.00
2022-09-10T02:47:05.851Z,0.00
2022-09-10T02:48:05.841Z,0.00
2022-09-10T02:49:05.829Z,0.00
2022-09-10T02:50:05.817Z,0.00
2022-09-10T02:51:05.827Z,0.00
2022-09-10T02:52:05.797Z,0.00
2022-09-10T02:53:05.791Z,0.00
2022-09-10T02:54:05.774Z,0.00
2022-09-10T02:55:05.764Z,0.00
2022-09-10T02:56:05.751Z,0.00
2022-09-10T02:57:05.758Z,0.00
2022-09-10T02:58:05.731Z,0.00
2022-09-10T02:59:05.719Z,0.00
2022-09-10T03:00:05.711Z,0.00
2022-09-10T03:01:05.740Z,0.00
2022-09-10T03:02:05.773Z,0.00
2022-09-10T03:03:05.697Z,0.00
2022-09-10T03:04:05.666Z,0.00
2022-09-10T03:05:05.722Z,0.00
2022-09-10T03:06:05.646Z,0.00
2022-09-10T03:07:05.630Z,0.00
2022-09-10T03:08:05.624Z,0.00
2022-09-10T03:09:05.619Z,0.00
2022-09-10T03:10:05.599Z,0.00
2022-09-10T03:11:05.586Z,0.00
2022-09-10T03:12:05.576Z,0.00
2022-09-10T03:13:05.568Z,0.00
2022-09-10T03:14:05.553Z,0.00
2022-09-10T03:15:05.547Z,0.00
2022-09-10T03:16:05.625Z,0.00
2022-09-10T03:17:05.540Z,0.00
2022-09-10T03:18:05.509Z,0.00
2022-09-10T03:19:05.498Z,0.00
2022-09-10T03:20:05.488Z,0.00
2022-09-10T03:21:05.498Z,0.00
2022-09-10T03:22:05.468Z,0.00
2022-09-10T03:23:05.458Z,0.00
2022-09-10T03:24:05.473Z,0.00
2022-09-10T03:25:05.436Z,0.00
2022-09-10T03:26:05.421Z,0.00
2022-09-10T03:27:05.415Z,0.00
2022-09-10T03:28:05.398Z,0.00
2022-09-10T03:29:05.389Z,0.00
2022-09-10T03:30:05.378Z,0.00
2022-09-10T03:31:05.366Z,0.00
2022-09-10T03:32:05.354Z,0.00
2022-09-10T03:33:05.380Z,0.00
2022-09-10T03:34:05.333Z,0.00
2022-09-10T03:35:05.326Z,0.00
2022-09-10T03:36:05.311Z,0.00
2022-09-10T03:37:05.299Z,0.00
2022-09-10T03:38:05.287Z,0.00
2022-09-10T03:39:05.283Z,0.00
2022-09-10T03:40:05.327Z,0.00
2022-09-10T03:41:05.257Z,0.00
2022-09-10T03:42:05.259Z,0.00
2022-09-10T03:43:05.239Z,0.00
2022-09-10T03:44:05.231Z,0.00
2022-09-10T03:45:05.243Z,0.00
2022-09-10T03:46:05.282Z,0.00
2022-09-10T03:47:05.199Z,0.00
2022-09-10T03:48:05.177Z,0.00
2022-09-10T03:49:05.190Z,0.00
2022-09-10T03:50:05.159Z,0.00
2022-09-10T03:51:05.152Z,0.00
2022-09-10T03:52:05.134Z,0.00
2022-09-10T03:53:05.122Z,0.00
2022-09-10T03:54:05.117Z,0.00
2022-09-10T03:55:05.102Z,0.00
2022-09-10T03:56:05.089Z,0.00
2022-09-10T03:57:05.099Z,0.00
2022-09-10T03:58:05.067Z,0.00
2022-09-10T03:59:05.061Z,0.00
2022-09-10T04:00:05.050Z,0.00
2022-09-10T04:01:05.117Z,0.00
2022-09-10T04:02:05.051Z,0.00
2022-09-10T04:03:05.020Z,0.00
2022-09-10T04:04:05.001Z,0.00
2022-09-10T04:05:05.015Z,0.00
2022-09-10T04:06:04.985Z,0.00
2022-09-10T04:07:04.973Z,0.00
2022-09-10T04:08:04.957Z,0.00
2022-09-10T04:09:04.981Z,0.00
2022-09-10T04:10:04.934Z,0.00
2022-09-10T04:11:04.925Z,0.00
2022-09-10T04:12:04.912Z,0.00
2022-09-10T04:13:04.903Z,0.00
2022-09-10T04:14:04.891Z,0.00
2022-09-10T04:15:04.887Z,4.00
2022-09-10T04:16:04.946Z,4.00
2022-09-10T04:17:04.859Z,4.00
2022-09-10T04:18:04.851Z,4.00
2022-09-10T04:19:04.838Z,4.00
2022-09-10T04:20:04.829Z,4.00
2022-09-10T04:21:04.864Z,4.00
2022-09-10T04:22:04.803Z,8.00
2022-09-10T04:23:04.793Z,8.00
2022-09-10T04:24:04.781Z,4.00
2022-09-10T04:25:04.771Z,8.00
2022-09-10T04:26:04.760Z,8.00
2022-09-10T04:27:04.756Z,12.00
2022-09-10T04:28:04.736Z,12.00
2022-09-10T04:29:04.730Z,12.00
2022-09-10T04:30:04.715Z,16.00
2022-09-10T04:33:24.978Z,16.00
2022-09-10T04:34:24.939Z,20.00
2022-09-10T04:35:24.927Z,24.00
2022-09-10T04:36:24.934Z,24.00
2022-09-10T04:37:24.906Z,28.00
2022-09-10T04:38:24.894Z,28.00
2022-09-10T04:39:24.902Z,32.00
2022-09-10T04:40:24.872Z,32.00
2022-09-10T04:41:24.863Z,32.00
2022-09-10T04:42:24.852Z,36.00
2022-09-10T04:43:24.839Z,36.00
2022-09-10T04:44:24.828Z,40.00
2022-09-10T04:45:24.983Z,40.00
2022-09-10T04:46:24.806Z,44.00
2022-09-10T04:47:24.796Z,44.00
2022-09-10T04:48:24.784Z,52.00
2022-09-10T04:49:24.773Z,52.00
2022-09-10T04:50:24.763Z,52.00
2022-09-10T04:51:24.783Z,56.00
2022-09-10T04:52:24.760Z,60.00
2022-09-10T04:53:24.729Z,60.00
2022-09-10T04:54:24.718Z,64.00
2022-09-10T04:55:24.706Z,68.00
2022-09-10T04:56:24.697Z,72.00
2022-09-10T04:57:24.697Z,72.00
2022-09-10T04:58:24.674Z,80.00
2022-09-10T04:59:24.665Z,80.00
2022-09-10T05:00:24.651Z,80.00
2022-09-10T05:01:24.673Z,84.00
2022-09-10T05:02:24.710Z,88.00
2022-09-10T05:03:24.625Z,88.00
2022-09-10T05:04:24.608Z,96.00
2022-09-10T05:05:24.597Z,100.00
2022-09-10T05:06:24.586Z,104.00
2022-09-10T05:07:24.575Z,104.00
2022-09-10T05:08:24.581Z,112.00
2022-09-10T05:09:24.588Z,116.00
2022-09-10T05:10:24.545Z,120.00
2022-09-10T05:11:24.532Z,124.00
2022-09-10T05:12:24.519Z,128.00
2022-09-10T05:13:24.510Z,132.00
2022-09-10T05:14:24.497Z,132.00
2022-09-10T05:15:24.503Z,132.00
2022-09-10T05:16:24.555Z,136.00
2022-09-10T05:17:24.464Z,136.00
2022-09-10T05:18:24.454Z,140.00
2022-09-10T05:19:24.443Z,144.00
2022-09-10T05:20:24.431Z,148.00
2022-09-10T05:21:24.427Z,152.00
2022-09-10T05:22:24.409Z,152.00
2022-09-10T05:23:24.399Z,156.00
2022-09-10T05:24:24.407Z,160.00
2022-09-10T05:25:24.381Z,164.00
2022-09-10T05:26:24.367Z,168.00
2022-09-10T05:27:24.388Z,168.00
2022-09-10T05:28:24.343Z,172.00
2022-09-10T05:29:24.332Z,172.00
2022-09-10T05:30:24.322Z,176.00
2022-09-10T05:31:24.335Z,180.00
2022-09-10T05:32:24.299Z,184.00
2022-09-10T05:33:24.293Z,188.00
2022-09-10T05:34:24.276Z,188.00
2022-09-10T05:35:24.266Z,188.00
2022-09-10T05:36:24.255Z,196.00
2022-09-10T05:37:24.244Z,196.00
2022-09-10T05:38:24.233Z,196.00
2022-09-10T05:39:24.229Z,196.00
2022-09-10T05:40:24.230Z,204.00
2022-09-10T05:41:24.200Z,200.00
2022-09-10T05:42:24.190Z,204.00
2022-09-10T05:43:24.178Z,208.00
2022-09-10T05:44:24.167Z,204.00
2022-09-10T05:45:24.176Z,208.00
2022-09-10T05:46:24.145Z,212.00
2022-09-10T05:47:24.133Z,216.00
2022-09-10T05:48:24.123Z,216.00
2022-09-10T05:49:24.111Z,216.00
2022-09-10T05:50:24.100Z,220.00
2022-09-10T05:51:24.107Z,220.00
2022-09-10T05:52:24.080Z,224.00
2022-09-10T05:53:24.068Z,224.00
2022-09-10T05:54:24.057Z,228.00
2022-09-10T05:55:24.044Z,228.00
2022-09-10T05:56:24.084Z,228.00
2022-09-10T05:57:24.029Z,232.00
2022-09-10T05:58:24.011Z,228.00
2022-09-10T05:59:24.003Z,232.00
2022-09-10T06:00:23.990Z,232.00
2022-09-10T06:01:23.981Z,236.00
2022-09-10T06:02:24.522Z,236.00
2022-09-10T06:03:23.989Z,240.00
2022-09-10T06:04:23.945Z,240.00
2022-09-10T06:05:23.936Z,244.00
2022-09-10T06:06:23.924Z,244.00
2022-09-10T06:07:23.913Z,244.00
2022-09-10T06:08:23.904Z,248.00
2022-09-10T06:09:23.897Z,248.00
2022-09-10T06:10:23.879Z,252.00
2022-09-10T06:11:23.869Z,252.00
2022-09-10T06:12:23.876Z,252.00
2022-09-10T06:13:23.848Z,260.00
2022-09-10T06:14:23.836Z,260.00
2022-09-10T06:15:23.847Z,260.00
2022-09-10T06:16:23.849Z,264.00
2022-09-10T06:17:23.818Z,264.00
2022-09-10T06:18:23.792Z,264.00
2022-09-10T06:19:23.780Z,272.00
2022-09-10T06:20:23.770Z,272.00
2022-09-10T06:21:27.966Z,272.00
2022-09-10T06:22:23.750Z,276.00
2022-09-10T06:23:23.736Z,276.00
2022-09-10T06:24:23.724Z,280.00
2022-09-10T06:25:23.713Z,280.00
2022-09-10T06:26:23.702Z,280.00
2022-09-10T06:27:23.706Z,284.00
2022-09-10T06:28:23.699Z,284.00
2022-09-10T06:29:23.672Z,284.00
2022-09-10T06:30:23.659Z,288.00
2022-09-10T06:31:23.648Z,288.00
2022-09-10T06:32:23.637Z,288.00
2022-09-10T06:33:23.633Z,296.00
2022-09-10T06:34:23.615Z,296.00
2022-09-10T06:35:23.604Z,296.00
2022-09-10T06:36:23.592Z,296.00
2022-09-10T06:37:23.582Z,304.00
2022-09-10T06:38:23.570Z,304.00
2022-09-10T06:39:23.589Z,304.00
2022-09-10T06:40:23.551Z,308.00
2022-09-10T06:41:23.538Z,308.00
2022-09-10T06:42:23.525Z,308.00
2022-09-10T06:43:23.514Z,308.00
2022-09-10T06:44:23.522Z,316.00
2022-09-10T06:45:23.501Z,316.00
2022-09-10T06:48:06.825Z,320.00
2022-09-10T06:48:43.283Z,320.00
2022-09-10T06:49:24.448Z,320.00
2022-09-10T06:50:23.439Z,328.00
2022-09-10T06:51:23.433Z,328.00
2022-09-10T06:52:23.426Z,328.00
2022-09-10T06:53:23.405Z,332.00
2022-09-10T06:54:23.393Z,332.00
2022-09-10T06:55:23.384Z,336.00
2022-09-10T06:56:23.371Z,336.00
2022-09-10T06:57:23.369Z,340.00
2022-09-10T06:58:23.350Z,340.00
2022-09-10T06:59:23.341Z,344.00
2022-09-10T07:00:23.349Z,344.00
2022-09-10T07:01:23.345Z,348.00
2022-09-10T07:02:23.349Z,352.00
2022-09-10T07:03:23.310Z,352.00
2022-09-10T07:04:23.287Z,352.00
2022-09-10T07:05:23.273Z,356.00
2022-09-10T07:06:23.271Z,356.00
2022-09-10T07:07:23.252Z,356.00
2022-09-10T07:08:23.240Z,364.00
2022-09-10T07:09:23.236Z,364.00
2022-09-10T07:10:23.315Z,368.00
2022-09-10T07:11:23.211Z,368.00
2022-09-10T07:12:23.195Z,372.00
2022-09-10T07:13:23.191Z,372.00
2022-09-10T07:14:23.174Z,372.00
2022-09-10T07:15:23.206Z,376.00
2022-09-10T07:16:23.170Z,380.00
2022-09-10T07:17:23.140Z,384.00
2022-09-10T07:18:23.129Z,384.00
2022-09-10T07:19:23.118Z,388.00
2022-09-10T07:20:23.166Z,388.00
2022-09-10T07:21:23.103Z,392.00
2022-09-10T07:22:23.085Z,392.00
2022-09-10T07:23:23.074Z,392.00
2022-09-10T07:24:23.063Z,396.00
2022-09-10T07:25:23.053Z,404.00
2022-09-10T07:26:23.045Z,404.00
2022-09-10T07:27:23.036Z,408.00
2022-09-10T07:28:23.020Z,412.00
2022-09-10T07:29:23.008Z,416.00
2022-09-10T07:30:23.000Z,416.00
2022-09-10T07:31:23.067Z,420.00
2022-09-10T07:32:22.994Z,424.00
2022-09-10T07:33:22.986Z,424.00
2022-09-10T07:34:22.952Z,428.00
2022-09-10T07:35:22.941Z,432.00
2022-09-10T07:36:22.930Z,436.00
2022-09-10T07:37:22.920Z,440.00
2022-09-10T07:38:22.908Z,444.00
2022-09-10T07:39:25.676Z,444.00
2022-09-10T07:40:22.886Z,444.00
2022-09-10T07:41:22.875Z,444.00
2022-09-10T07:42:22.865Z,456.00
2022-09-10T07:43:22.853Z,456.00
2022-09-10T07:44:22.850Z,460.00
2022-09-10T07:45:22.838Z,464.00
2022-09-10T07:46:22.822Z,464.00
2022-09-10T07:47:22.813Z,472.00
2022-09-10T07:48:22.818Z,476.00
2022-09-10T07:49:22.791Z,476.00
2022-09-10T07:50:22.785Z,476.00
2022-09-10T07:51:22.813Z,480.00
2022-09-10T07:52:22.754Z,484.00
2022-09-10T07:53:22.750Z,484.00
2022-09-10T07:54:22.742Z,488.00
2022-09-10T07:55:22.721Z,492.00
2022-09-10T07:56:22.712Z,496.00
2022-09-10T07:57:22.706Z,496.00
2022-09-10T07:58:22.688Z,500.00
2022-09-10T07:59:22.679Z,500.00
2022-09-10T08:00:22.668Z,504.00
2022-09-10T08:01:22.719Z,508.00
2022-09-10T08:02:22.686Z,512.00
2022-09-10T08:03:22.646Z,520.00
2022-09-10T08:04:22.643Z,528.00
2022-09-10T08:05:22.612Z,528.00
2022-09-10T08:06:22.601Z,536.00
2022-09-10T08:07:22.590Z,540.00
2022-09-10T08:08:22.579Z,544.00
2022-09-10T08:09:22.574Z,552.00
2022-09-10T08:10:22.557Z,556.00
2022-09-10T08:11:22.552Z,560.00
2022-09-10T08:12:22.537Z,564.00
2022-09-10T08:13:22.540Z,564.00
2022-09-10T08:14:22.517Z,572.00
2022-09-10T08:15:22.516Z,576.00
2022-09-10T08:16:22.492Z,576.00
2022-09-10T08:17:22.480Z,580.00
2022-09-10T08:18:22.470Z,584.00
2022-09-10T08:19:22.459Z,592.00
2022-09-10T08:20:22.464Z,580.00
2022-09-10T08:21:22.458Z,588.00
2022-09-10T08:22:22.424Z,588.00
2022-09-10T08:23:22.417Z,596.00
2022-09-10T08:24:22.401Z,608.00
2022-09-10T08:25:22.396Z,612.00
2022-09-10T08:26:22.380Z,608.00
2022-09-10T08:27:22.400Z,616.00
2022-09-10T08:28:25.331Z,620.00
2022-09-10T08:29:22.347Z,628.00
2022-09-10T08:30:22.336Z,636.00
2022-09-10T08:31:22.372Z,644.00
2022-09-10T08:32:22.315Z,648.00
2022-09-10T08:33:22.324Z,652.00
2022-09-10T08:34:22.291Z,656.00
2022-09-10T08:35:22.281Z,660.00
2022-09-10T08:36:22.289Z,664.00
2022-09-10T08:37:22.259Z,672.00
2022-09-10T08:38:22.251Z,672.00
2022-09-10T08:39:22.244Z,676.00
2022-09-10T08:40:22.225Z,680.00
2022-09-10T08:41:22.217Z,688.00
2022-09-10T08:42:22.209Z,692.00
2022-09-10T08:43:22.193Z,696.00
2022-09-10T08:44:22.181Z,704.00
2022-09-10T08:45:22.179Z,708.00
2022-09-10T08:46:22.160Z,712.00
2022-09-10T08:47:22.147Z,712.00
2022-09-10T08:48:22.142Z,716.00
2022-09-10T08:49:22.128Z,724.00
2022-09-10T08:50:22.115Z,732.00
2022-09-10T08:51:22.120Z,736.00
2022-09-10T08:52:22.118Z,744.00
2022-09-10T08:53:22.082Z,752.00
2022-09-10T08:54:22.070Z,760.00
2022-09-10T08:55:22.059Z,768.00
2022-09-10T08:56:22.049Z,772.00
2022-09-10T08:57:22.045Z,780.00
2022-09-10T08:58:22.027Z,784.00
2022-09-10T08:59:22.016Z,792.00
2022-09-10T09:00:22.005Z,804.00
2022-09-10T09:01:22.173Z,808.00
2022-09-10T09:02:44.739Z,816.00
2022-09-10T09:03:23.066Z,828.00
2022-09-10T09:04:21.963Z,832.00
2022-09-10T09:05:21.950Z,848.00
2022-09-10T09:06:21.939Z,868.00
2022-09-10T09:07:21.928Z,876.00
2022-09-10T09:08:21.940Z,884.00
2022-09-10T09:09:21.916Z,896.00
2022-09-10T09:10:21.896Z,908.00
2022-09-10T09:11:21.884Z,924.00
2022-09-10T09:12:21.873Z,948.00
2022-09-10T09:13:21.873Z,1008.00
2022-09-10T09:14:21.851Z,1004.00
2022-09-10T09:15:21.845Z,996.00
2022-09-10T09:16:21.830Z,1004.00
2022-09-10T09:17:21.818Z,1012.00
2022-09-10T09:18:21.806Z,1032.00
2022-09-10T09:19:21.796Z,1052.00
2022-09-10T09:20:21.785Z,1068.00
2022-09-10T09:21:21.781Z,1080.00
2022-09-10T09:22:21.763Z,1092.00
2022-09-10T09:23:21.755Z,1064.00
2022-09-10T09:24:21.771Z,1144.00
2022-09-10T09:25:21.731Z,1220.00
2022-09-10T09:26:21.719Z,1324.00
2022-09-10T09:27:21.742Z,1364.00
2022-09-10T09:28:21.697Z,1348.00
2022-09-10T09:29:21.685Z,1324.00
2022-09-10T09:30:21.675Z,1276.00
2022-09-10T09:31:21.697Z,1280.00
2022-09-10T09:32:21.653Z,1224.00
2022-09-10T09:33:21.648Z,1288.00
2022-09-10T09:34:21.631Z,1464.00
2022-09-10T09:35:21.620Z,1656.00
2022-09-10T09:36:21.608Z,1768.00
2022-09-10T09:37:21.599Z,1836.00
2022-09-10T09:38:21.588Z,1732.00
2022-09-10T09:39:25.322Z,1588.00
2022-09-10T09:40:21.582Z,1444.00
2022-09-10T09:41:21.553Z,1436.00
2022-09-10T09:42:21.542Z,1460.00
2022-09-10T09:43:21.532Z,1432.00
2022-09-10T09:44:21.520Z,1412.00
2022-09-10T09:45:21.517Z,1392.00
2022-09-10T09:46:21.499Z,1392.00
2022-09-10T09:47:21.488Z,1380.00
2022-09-10T09:48:21.480Z,1384.00
2022-09-10T09:49:21.465Z,1396.00
2022-09-10T09:50:21.455Z,1432.00
2022-09-10T09:51:21.450Z,1564.00
2022-09-10T09:52:21.433Z,1724.00
2022-09-10T09:53:21.421Z,1704.00
2022-09-10T09:55:22.398Z,1352.00
2022-09-10T09:56:21.410Z,1536.00
2022-09-10T09:57:21.383Z,1564.00
2022-09-10T09:58:21.366Z,1584.00
2022-09-10T09:59:21.356Z,1648.00
2022-09-10T10:00:21.344Z,1488.00
2022-09-10T10:01:21.364Z,1736.00
2022-09-10T10:02:21.357Z,1652.00
2022-09-10T10:03:21.319Z,1748.00
2022-09-10T10:04:21.301Z,1792.00
2022-09-10T10:05:21.290Z,1676.00
2022-09-10T10:06:21.279Z,1140.00
2022-09-10T10:07:21.268Z,996.00
2022-09-10T10:08:21.258Z,960.00
2022-09-10T10:09:21.255Z,1040.00
2022-09-10T10:10:21.235Z,1240.00
2022-09-10T10:11:21.223Z,1264.00
2022-09-10T10:12:21.233Z,1288.00
2022-09-10T10:13:21.202Z,1760.00
2022-09-10T10:14:21.191Z,2308.00
2022-09-10T10:15:21.187Z,2540.00
2022-09-10T10:16:21.170Z,2620.00
2022-09-10T10:17:21.159Z,2656.00
2022-09-10T10:18:21.147Z,2684.00
2022-09-10T10:19:21.137Z,2880.00
2022-09-10T10:20:21.126Z,2460.00
2022-09-10T10:21:21.126Z,2456.00
2022-09-10T10:22:21.104Z,2812.00
2022-09-10T10:23:21.094Z,3140.00
2022-09-10T10:24:21.081Z,3416.00
2022-09-10T10:25:21.070Z,3436.00
2022-09-10T10:26:21.059Z,3508.00
2022-09-10T10:27:21.073Z,3280.00
2022-09-10T10:28:21.058Z,3096.00
2022-09-10T10:29:21.029Z,2792.00
2022-09-10T10:30:21.033Z,2720.00
2022-09-10T10:31:21.104Z,2600.00
2022-09-10T10:32:20.995Z,2696.00
2022-09-10T10:33:20.989Z,2856.00
2022-09-10T10:34:20.972Z,2904.00
2022-09-10T10:35:20.962Z,2668.00
2022-09-10T10:36:20.950Z,2580.00
2022-09-10T10:37:20.938Z,2868.00
2022-09-10T10:38:20.927Z,3124.00
2022-09-10T10:39:20.922Z,3256.00
2022-09-10T10:40:20.906Z,3476.00
2022-09-10T10:41:20.895Z,2392.00
2022-09-10T10:42:20.887Z,2736.00
2022-09-10T10:43:20.873Z,2128.00
2022-09-10T10:44:20.885Z,2496.00
2022-09-10T10:45:20.881Z,2956.00
2022-09-10T10:46:20.953Z,3084.00
2022-09-10T10:47:20.830Z,3472.00
2022-09-10T10:48:20.820Z,4708.00
2022-09-10T10:49:20.807Z,4524.00
2022-09-10T10:50:20.797Z,3436.00
2022-09-10T10:51:20.791Z,3448.00
2022-09-10T10:52:20.774Z,3576.00
2022-09-10T10:53:20.765Z,3852.00
2022-09-10T10:54:20.754Z,4120.00
2022-09-10T10:55:20.741Z,4192.00
2022-09-10T10:56:20.733Z,4388.00
2022-09-10T10:57:20.728Z,4136.00
2022-09-10T10:58:20.710Z,4476.00
2022-09-10T10:59:20.700Z,4620.00
2022-09-10T11:00:20.711Z,5300.00
2022-09-10T11:01:20.703Z,3656.00
2022-09-10T11:02:20.709Z,5132.00
2022-09-10T11:03:20.671Z,7080.00
2022-09-10T11:04:20.645Z,12604.00
2022-09-10T11:05:20.641Z,5820.00
2022-09-10T11:06:20.622Z,3956.00
2022-09-10T11:07:20.612Z,25120.00
2022-09-10T11:08:20.602Z,27392.00
2022-09-10T11:09:20.596Z,19264.00
2022-09-10T11:10:20.579Z,2544.00
2022-09-10T11:11:20.584Z,3004.00
2022-09-10T11:12:20.560Z,46112.00
2022-09-10T11:13:20.548Z,48352.00
2022-09-10T11:14:20.537Z,50048.00
2022-09-10T11:15:20.548Z,50528.00
2022-09-10T11:16:20.534Z,50784.00
2022-09-10T11:17:20.506Z,49600.00
2022-09-10T11:18:20.496Z,3780.00
2022-09-10T11:19:20.484Z,2880.00
2022-09-10T11:20:29.381Z,1588.00
2022-09-10T11:21:21.493Z,1816.00
2022-09-10T11:22:20.455Z,2596.00
2022-09-10T11:23:20.443Z,11868.00
2022-09-10T11:24:20.432Z,51808.00
2022-09-10T11:25:20.422Z,52288.00
2022-09-10T11:26:20.411Z,49632.00
2022-09-10T11:27:20.410Z,51392.00
2022-09-10T11:28:20.390Z,18308.00
2022-09-10T11:29:20.378Z,4888.00
2022-09-10T11:30:20.367Z,27744.00
2022-09-10T11:31:20.388Z,51584.00
2022-09-10T11:32:20.365Z,54560.00
2022-09-10T11:33:20.359Z,51968.00
2022-09-10T11:34:20.325Z,51424.00
2022-09-10T11:35:20.315Z,51968.00
2022-09-10T11:36:20.304Z,51328.00
2022-09-10T11:37:20.297Z,50880.00
2022-09-10T11:38:20.284Z,51072.00
2022-09-10T11:39:20.289Z,51456.00
2022-09-10T11:40:20.262Z,51616.00
2022-09-10T11:41:20.253Z,50208.00
2022-09-10T11:42:20.241Z,38848.00
2022-09-10T11:43:20.230Z,47264.00
2022-09-10T11:44:20.220Z,45952.00
2022-09-10T11:45:20.215Z,3160.00
2022-09-10T11:46:20.219Z,3288.00
2022-09-10T11:47:20.189Z,46944.00
2022-09-10T11:48:20.200Z,49120.00
2022-09-10T11:49:20.169Z,50144.00
2022-09-10T11:50:20.160Z,53824.00
2022-09-10T11:51:20.162Z,54336.00
2022-09-10T11:52:20.139Z,4980.00
2022-09-10T11:53:20.129Z,6268.00
2022-09-10T11:54:20.117Z,20800.00
2022-09-10T11:55:20.109Z,54016.00
2022-09-10T11:56:20.095Z,54592.00
2022-09-10T11:57:20.116Z,52864.00
2022-09-10T11:58:20.076Z,54016.00
2022-09-10T11:59:20.065Z,8268.00
2022-09-10T12:00:20.053Z,1744.00
2022-09-10T12:01:20.058Z,2312.00
2022-09-10T12:02:20.102Z,22176.00
2022-09-10T12:03:20.070Z,53920.00
2022-09-10T12:04:20.048Z,54624.00
2022-09-10T12:05:20.003Z,53344.00
2022-09-10T12:06:19.993Z,52800.00
2022-09-10T12:07:19.983Z,53344.00
2022-09-10T12:08:19.972Z,54688.00
2022-09-10T12:09:19.967Z,52160.00
2022-09-10T12:10:19.955Z,38880.00
2022-09-10T12:11:19.940Z,44672.00
2022-09-10T12:12:19.931Z,4776.00
2022-09-10T12:13:19.922Z,3460.00
2022-09-10T12:14:19.909Z,2456.00
2022-09-10T12:15:19.905Z,2132.00
2022-09-10T12:16:19.972Z,1952.00
2022-09-10T12:17:19.878Z,1856.00
2022-09-10T12:18:19.868Z,2020.00
2022-09-10T12:19:19.859Z,3708.00
2022-09-10T12:20:19.869Z,15392.00
2022-09-10T12:21:19.857Z,41152.00
2022-09-10T12:22:19.831Z,51616.00
2022-09-10T12:23:19.817Z,24000.00
2022-09-10T12:24:19.806Z,47360.00
2022-09-10T12:25:19.796Z,57312.00
2022-09-10T12:26:19.792Z,54560.00
2022-09-10T12:27:19.779Z,59200.00
2022-09-10T12:28:19.764Z,59328.00
2022-09-10T12:29:19.754Z,20960.00
2022-09-10T12:30:19.744Z,3508.00
2022-09-10T12:31:19.827Z,4036.00
2022-09-10T12:32:19.733Z,4028.00
2022-09-10T12:33:19.745Z,3560.00
2022-09-10T12:34:19.702Z,19488.00
2022-09-10T12:35:19.691Z,57280.00
2022-09-10T12:36:19.700Z,48832.00
2022-09-10T12:37:19.672Z,51456.00
2022-09-10T12:38:19.662Z,49504.00
2022-09-10T12:39:19.703Z,47232.00
2022-09-10T12:40:19.665Z,53856.00
2022-09-10T12:41:19.629Z,48768.00